createdAt,value
2019-05-10T00:01:35.700Z,13.70
2019-05-10T00:04:21.272Z,13.70
2019-05-10T00:07:05.803Z,13.60
2019-05-10T00:09:32.002Z,13.60
2019-05-10T00:12:03.095Z,13.50
2019-05-10T00:14:31.479Z,13.50
2019-05-10T00:16:59.888Z,13.50
2019-05-10T00:19:26.487Z,13.50
2019-05-10T00:21:52.894Z,13.40
2019-05-10T00:24:20.263Z,13.40
2019-05-10T00:26:47.136Z,13.40
2019-05-10T00:29:13.634Z,13.40
2019-05-10T00:31:40.147Z,13.30
2019-05-10T00:34:06.504Z,13.30
2019-05-10T00:36:34.396Z,13.30
2019-05-10T00:39:01.071Z,13.30
2019-05-10T00:41:27.594Z,13.30
2019-05-10T00:43:53.904Z,13.30
2019-05-10T00:46:20.229Z,13.30
2019-05-10T00:48:46.591Z,13.30
2019-05-10T00:51:13.218Z,13.30
2019-05-10T00:53:39.943Z,13.30
2019-05-10T00:56:06.315Z,13.30
2019-05-10T00:58:32.711Z,13.30
2019-05-10T01:00:59.343Z,13.30
2019-05-10T01:03:25.680Z,13.30
2019-05-10T01:05:52.211Z,13.20
2019-05-10T01:08:18.498Z,13.20
2019-05-10T01:10:44.884Z,13.20
2019-05-10T01:13:11.277Z,13.10
2019-05-10T01:15:37.775Z,13.10
2019-05-10T01:18:04.066Z,13.00
2019-05-10T01:20:30.604Z,13.00
2019-05-10T01:22:57.005Z,13.00
2019-05-10T01:25:34.819Z,12.90
2019-05-10T01:27:51.752Z,12.90
2019-05-10T01:30:18.623Z,12.80
2019-05-10T01:32:45.006Z,12.80
2019-05-10T01:35:11.886Z,12.80
2019-05-10T01:37:38.167Z,12.70
2019-05-10T01:40:04.762Z,12.70
2019-05-10T01:42:31.372Z,12.60
2019-05-10T01:44:57.674Z,12.60
2019-05-10T01:47:24.339Z,12.60
2019-05-10T01:49:50.879Z,12.60
2019-05-10T01:52:17.274Z,12.50
2019-05-10T01:54:44.566Z,12.40
2019-05-10T01:57:10.914Z,12.40
2019-05-10T01:59:37.472Z,12.30
2019-05-10T02:02:04.154Z,12.30
2019-05-10T02:04:30.546Z,12.30
2019-05-10T02:06:56.807Z,12.20
2019-05-10T02:09:23.185Z,12.20
2019-05-10T02:11:49.587Z,12.20
2019-05-10T02:14:15.879Z,12.10
2019-05-10T02:16:42.342Z,12.10
2019-05-10T02:19:08.999Z,12.10
2019-05-10T02:21:35.362Z,12.10
2019-05-10T02:24:01.734Z,12.10
2019-05-10T02:26:28.031Z,12.10
2019-05-10T02:28:54.936Z,12.00
2019-05-10T02:31:22.087Z,12.00
2019-05-10T02:33:48.600Z,12.00
2019-05-10T02:36:15.383Z,12.00
2019-05-10T02:38:41.643Z,12.00
2019-05-10T02:41:07.916Z,12.00
2019-05-10T02:43:34.301Z,12.00
2019-05-10T02:46:00.767Z,12.00
2019-05-10T02:48:29.075Z,12.00
2019-05-10T02:50:55.445Z,12.10
2019-05-10T02:53:22.334Z,12.10
2019-05-10T02:55:48.906Z,12.00
2019-05-10T02:58:15.581Z,12.10
2019-05-10T03:00:45.071Z,12.10
2019-05-10T03:03:11.751Z,12.10
2019-05-10T03:05:41.361Z,12.10
2019-05-10T03:08:10.439Z,12.10
2019-05-10T03:10:38.802Z,12.10
2019-05-10T03:13:07.999Z,12.10
2019-05-10T03:15:35.085Z,12.10
2019-05-10T03:18:01.891Z,12.20
2019-05-10T03:20:30.801Z,12.20
2019-05-10T03:22:57.463Z,12.20
2019-05-10T03:25:23.768Z,12.20
2019-05-10T03:27:50.123Z,12.30
2019-05-10T03:30:16.417Z,12.30
2019-05-10T03:32:42.813Z,12.30
2019-05-10T03:35:09.674Z,12.30
2019-05-10T03:37:36.087Z,12.30
2019-05-10T03:40:05.203Z,12.40
2019-05-10T03:42:31.534Z,12.40
2019-05-10T03:44:57.940Z,12.30
2019-05-10T03:47:24.668Z,12.40
2019-05-10T03:49:51.059Z,12.40
2019-05-10T03:52:17.469Z,12.40
2019-05-10T03:54:43.828Z,12.40
2019-05-10T03:57:13.972Z,12.40
2019-05-10T03:59:38.358Z,12.50
2019-05-10T04:02:04.830Z,12.40
2019-05-10T04:04:31.198Z,12.50
2019-05-10T04:06:57.622Z,12.50
2019-05-10T04:09:24.185Z,12.50
2019-05-10T04:11:50.571Z,12.50
2019-05-10T04:14:16.836Z,12.50
2019-05-10T04:16:43.199Z,12.50
2019-05-10T04:19:10.699Z,12.50
2019-05-10T04:21:37.396Z,12.50
2019-05-10T04:24:03.871Z,12.50
2019-05-10T04:26:30.226Z,12.50
2019-05-10T04:28:56.831Z,12.50
2019-05-10T04:31:23.195Z,12.50
2019-05-10T04:33:49.495Z,12.50
2019-05-10T04:36:15.863Z,12.60
2019-05-10T04:38:42.143Z,12.60
2019-05-10T04:41:08.422Z,12.60
2019-05-10T04:43:34.700Z,12.60
2019-05-10T04:46:02.421Z,12.60
2019-05-10T04:48:29.894Z,12.70
2019-05-10T04:50:56.543Z,12.70
2019-05-10T04:53:22.818Z,12.70
2019-05-10T04:55:49.507Z,12.70
2019-05-10T04:58:15.778Z,12.70
2019-05-10T05:00:42.583Z,12.70
2019-05-10T05:03:08.870Z,12.70
2019-05-10T05:05:36.016Z,12.70
2019-05-10T05:08:06.023Z,12.70
2019-05-10T05:10:30.579Z,12.70
2019-05-10T05:12:56.871Z,12.70
2019-05-10T05:15:23.439Z,12.70
2019-05-10T05:17:49.837Z,12.70
2019-05-10T05:20:16.108Z,12.70
2019-05-10T05:22:42.510Z,12.70
2019-05-10T05:25:09.179Z,12.70
2019-05-10T05:27:35.611Z,12.70
2019-05-10T05:30:07.491Z,12.70
2019-05-10T05:32:38.653Z,12.80
2019-05-10T05:35:03.187Z,12.80
2019-05-10T05:37:29.485Z,12.80
2019-05-10T05:39:56.174Z,12.80
2019-05-10T05:42:28.019Z,12.80
2019-05-10T05:44:51.087Z,12.80
2019-05-10T05:47:17.374Z,12.80
2019-05-10T05:49:44.065Z,12.80
2019-05-10T05:52:10.436Z,12.80
2019-05-10T05:54:37.531Z,12.90
2019-05-10T05:57:03.813Z,12.90
2019-05-10T05:59:31.047Z,12.90
2019-05-10T06:02:00.733Z,12.90
2019-05-10T06:04:25.945Z,12.90
2019-05-10T06:06:53.630Z,12.90
2019-05-10T06:09:20.847Z,13.00
2019-05-10T06:11:48.124Z,13.00
2019-05-10T06:14:14.844Z,13.00
2019-05-10T06:16:45.166Z,13.00
2019-05-10T06:19:09.562Z,13.10
2019-05-10T06:21:36.192Z,13.10
2019-05-10T06:24:07.317Z,13.10
2019-05-10T06:26:31.042Z,13.10
2019-05-10T06:29:03.398Z,13.20
2019-05-10T06:31:26.822Z,13.10
2019-05-10T06:33:53.415Z,13.20
2019-05-10T06:36:20.010Z,13.20
2019-05-10T06:38:46.279Z,13.20
2019-05-10T06:41:16.936Z,13.20
2019-05-10T06:43:45.485Z,13.30
2019-05-10T06:46:09.022Z,13.30
2019-05-10T06:48:35.296Z,13.30
2019-05-10T06:51:02.889Z,13.30
2019-05-10T06:53:29.855Z,13.30
2019-05-10T06:55:56.527Z,13.30
2019-05-10T06:58:22.887Z,13.30
2019-05-10T07:00:49.252Z,13.30
2019-05-10T07:03:15.692Z,13.30
2019-05-10T07:05:42.260Z,13.30
2019-05-10T07:08:15.249Z,13.30
2019-05-10T07:10:36.841Z,13.40
2019-05-10T07:13:04.041Z,13.40
2019-05-10T07:15:35.634Z,13.30
2019-05-10T07:17:59.894Z,13.30
2019-05-10T07:20:29.587Z,13.30
2019-05-10T07:22:54.559Z,13.30
2019-05-10T07:25:21.184Z,13.30
2019-05-10T07:27:50.310Z,13.30
2019-05-10T07:30:19.475Z,13.30
2019-05-10T07:32:45.839Z,13.40
2019-05-10T07:35:12.375Z,13.40
2019-05-10T07:37:38.747Z,13.40
2019-05-10T07:40:06.046Z,13.40
2019-05-10T07:42:32.426Z,13.50
2019-05-10T07:44:58.797Z,13.60
2019-05-10T07:47:30.212Z,13.60
2019-05-10T07:49:54.459Z,13.70
2019-05-10T07:52:21.070Z,13.80
2019-05-10T07:54:47.771Z,14.00
2019-05-10T07:57:18.539Z,14.00
2019-05-10T07:59:50.941Z,14.10
2019-05-10T08:02:12.686Z,14.10
2019-05-10T08:04:39.228Z,14.10
2019-05-10T08:07:09.769Z,14.10
2019-05-10T08:09:37.222Z,14.10
2019-05-10T08:12:05.130Z,14.10
2019-05-10T08:14:30.774Z,14.10
2019-05-10T08:17:02.673Z,14.10
2019-05-10T08:19:25.875Z,14.10
2019-05-10T08:21:56.504Z,14.10
2019-05-10T08:24:22.170Z,14.10
2019-05-10T08:26:48.582Z,14.10
2019-05-10T08:29:16.919Z,14.20
2019-05-10T08:31:50.454Z,14.10
2019-05-10T08:34:11.857Z,14.20
2019-05-10T08:36:45.856Z,14.20
2019-05-10T08:39:10.727Z,14.20
2019-05-10T08:41:34.822Z,14.30
2019-05-10T08:44:04.580Z,14.30
2019-05-10T08:46:38.288Z,14.40
2019-05-10T08:48:57.559Z,14.50
2019-05-10T08:51:23.856Z,14.60
2019-05-10T08:53:53.504Z,14.70
2019-05-10T08:56:21.615Z,14.80
2019-05-10T08:58:48.047Z,14.80
2019-05-10T09:01:25.887Z,14.80
2019-05-10T09:03:47.081Z,14.80
2019-05-10T09:06:16.418Z,14.90
2019-05-10T09:08:39.430Z,14.90
2019-05-10T09:11:06.907Z,15.00
2019-05-10T09:13:37.751Z,15.00
2019-05-10T09:16:02.521Z,15.10
2019-05-10T09:18:28.974Z,15.20
2019-05-10T09:21:02.628Z,15.20
2019-05-10T09:23:23.470Z,15.20
2019-05-10T09:25:51.928Z,15.20
2019-05-10T09:28:18.046Z,15.20
2019-05-10T09:30:56.454Z,15.10
2019-05-10T09:33:14.294Z,15.10
2019-05-10T09:35:47.043Z,15.00
2019-05-10T09:38:12.397Z,15.00
2019-05-10T09:40:45.560Z,15.00
2019-05-10T09:43:09.601Z,15.00
2019-05-10T09:45:34.294Z,15.00
2019-05-10T09:48:02.459Z,15.00
2019-05-10T09:50:30.579Z,15.00
2019-05-10T09:52:57.555Z,15.00
2019-05-10T09:55:23.963Z,15.00
2019-05-10T09:57:50.609Z,15.00
2019-05-10T10:00:21.190Z,15.00
2019-05-10T10:02:55.884Z,15.00
2019-05-10T10:05:17.903Z,15.00
2019-05-10T10:07:44.847Z,15.00
2019-05-10T10:10:17.668Z,14.90
2019-05-10T10:12:41.245Z,14.90
2019-05-10T10:15:10.733Z,15.00
2019-05-10T10:17:41.777Z,15.10
2019-05-10T10:20:05.064Z,15.20
2019-05-10T10:22:31.746Z,15.40
2019-05-10T10:25:00.610Z,15.60
2019-05-10T10:27:34.208Z,15.70
2019-05-10T10:29:57.183Z,15.90
2019-05-10T10:32:24.804Z,16.10
2019-05-10T10:34:54.575Z,16.20
2019-05-10T10:37:22.121Z,16.30
2019-05-10T10:39:47.788Z,16.40
2019-05-10T10:42:14.254Z,16.50
2019-05-10T10:44:40.743Z,16.50
2019-05-10T10:47:08.200Z,16.50
2019-05-10T10:49:35.102Z,16.60
2019-05-10T10:52:05.542Z,16.70
2019-05-10T10:54:36.245Z,16.70
2019-05-10T10:56:59.687Z,16.80
2019-05-10T10:59:27.135Z,16.80
2019-05-10T11:02:25.228Z,16.80
2019-05-10T11:04:21.601Z,16.70
2019-05-10T11:06:47.873Z,16.70
2019-05-10T11:09:14.266Z,16.70
2019-05-10T11:11:44.396Z,16.60
2019-05-10T11:14:11.110Z,16.70
2019-05-10T11:16:37.662Z,16.70
2019-05-10T11:19:11.441Z,16.80
2019-05-10T11:21:33.403Z,17.00
2019-05-10T11:24:01.389Z,17.10
2019-05-10T11:26:32.860Z,17.30
2019-05-10T11:28:56.264Z,17.50
2019-05-10T11:31:22.645Z,17.80
2019-05-10T11:33:56.092Z,18.10
2019-05-10T11:36:17.112Z,18.60
2019-05-10T11:38:46.970Z,19.30
2019-05-10T11:41:20.633Z,20.00
2019-05-10T11:43:41.909Z,20.70
2019-05-10T11:46:08.450Z,21.40
2019-05-10T11:48:37.110Z,21.90
2019-05-10T11:51:05.658Z,22.20
2019-05-10T11:53:31.665Z,22.40
2019-05-10T11:55:58.060Z,22.50
2019-05-10T11:58:24.422Z,22.60
2019-05-10T12:00:58.831Z,22.50
2019-05-10T12:03:23.313Z,22.30
2019-05-10T12:05:56.486Z,22.10
2019-05-10T12:08:15.694Z,21.90
2019-05-10T12:10:52.417Z,21.70
2019-05-10T12:13:19.133Z,21.50
2019-05-10T12:15:42.603Z,21.30
2019-05-10T12:18:07.206Z,21.20
2019-05-10T12:20:54.427Z,21.00
2019-05-10T12:23:03.365Z,20.90
2019-05-10T12:25:47.078Z,20.80
2019-05-10T12:28:01.204Z,20.70
2019-05-10T12:30:29.551Z,20.70
2019-05-10T12:32:58.108Z,20.70
2019-05-10T12:35:26.399Z,20.80
2019-05-10T12:37:54.108Z,20.80
2019-05-10T12:40:23.827Z,20.80
2019-05-10T12:42:48.745Z,21.00
2019-05-10T12:45:15.619Z,21.30
2019-05-10T12:47:42.770Z,21.60
2019-05-10T12:50:09.838Z,21.90
2019-05-10T12:52:36.147Z,22.10
2019-05-10T12:55:04.529Z,22.20
2019-05-10T12:57:30.811Z,22.40
2019-05-10T12:59:57.199Z,22.60
2019-05-10T13:02:23.745Z,22.90
2019-05-10T13:04:52.597Z,23.20
2019-05-10T13:07:18.211Z,23.60
2019-05-10T13:09:44.713Z,23.80
2019-05-10T13:12:11.527Z,24.00
2019-05-10T13:14:40.251Z,24.20
2019-05-10T13:17:09.744Z,24.50
2019-05-10T13:19:34.420Z,24.70
2019-05-10T13:22:01.151Z,24.70
2019-05-10T13:24:27.428Z,24.60
2019-05-10T13:26:53.839Z,24.40
2019-05-10T13:29:20.446Z,24.10
2019-05-10T13:31:46.839Z,23.70
2019-05-10T13:34:13.623Z,23.40
2019-05-10T13:36:40.010Z,23.10
2019-05-10T13:39:06.688Z,22.80
2019-05-10T13:41:33.179Z,22.60
2019-05-10T13:44:05.028Z,22.50
2019-05-10T13:46:28.065Z,22.60
2019-05-10T13:48:54.467Z,22.70
2019-05-10T13:51:21.403Z,22.90
2019-05-10T13:53:47.871Z,23.00
2019-05-10T13:56:14.427Z,23.00
2019-05-10T13:58:41.184Z,22.90
2019-05-10T14:01:13.019Z,22.80
2019-05-10T14:03:43.629Z,22.60
2019-05-10T14:06:04.216Z,22.40
2019-05-10T14:08:30.590Z,22.20
2019-05-10T14:11:01.585Z,22.00
2019-05-10T14:13:25.073Z,21.90
2019-05-10T14:15:51.342Z,21.70
2019-05-10T14:18:17.707Z,21.60
2019-05-10T14:20:44.463Z,21.50
2019-05-10T14:23:11.023Z,21.40
2019-05-10T14:25:38.969Z,21.50
2019-05-10T14:28:09.581Z,21.70
2019-05-10T14:30:33.782Z,21.90
2019-05-10T14:33:01.646Z,22.00
2019-05-10T14:35:28.278Z,22.10
2019-05-10T14:37:54.643Z,22.30
2019-05-10T14:40:27.755Z,22.50
2019-05-10T14:42:49.331Z,22.80
2019-05-10T14:45:15.814Z,23.00
2019-05-10T14:47:47.853Z,23.20
2019-05-10T14:50:10.784Z,23.30
2019-05-10T14:52:37.052Z,23.40
2019-05-10T14:55:06.427Z,23.40
2019-05-10T14:57:32.796Z,23.30
2019-05-10T14:59:59.177Z,23.20
2019-05-10T15:02:25.561Z,23.10
2019-05-10T15:04:52.147Z,23.00
2019-05-10T15:07:18.434Z,22.90
2019-05-10T15:09:44.708Z,22.80
2019-05-10T15:12:16.427Z,22.60
2019-05-10T15:14:39.751Z,22.50
2019-05-10T15:17:06.064Z,22.40
2019-05-10T15:19:33.431Z,22.40
2019-05-10T15:21:59.876Z,22.30
2019-05-10T15:24:26.499Z,22.20
2019-05-10T15:26:52.892Z,22.10
2019-05-10T15:29:22.399Z,22.00
2019-05-10T15:31:48.574Z,22.10
2019-05-10T15:34:14.859Z,22.20
2019-05-10T15:36:41.547Z,22.40
2019-05-10T15:39:07.940Z,22.40
2019-05-10T15:41:34.414Z,22.50
2019-05-10T15:44:00.686Z,22.50
2019-05-10T15:46:35.282Z,22.50
2019-05-10T15:48:55.250Z,22.50
2019-05-10T15:51:35.288Z,22.50
2019-05-10T15:53:50.140Z,22.40
2019-05-10T15:56:16.520Z,22.30
2019-05-10T15:58:42.906Z,22.20
2019-05-10T16:01:13.786Z,22.20
2019-05-10T16:03:37.956Z,22.10
2019-05-10T16:06:04.462Z,22.00
2019-05-10T16:08:32.024Z,21.90
2019-05-10T16:10:58.503Z,21.90
2019-05-10T16:13:25.318Z,21.90
2019-05-10T16:15:57.411Z,21.90
2019-05-10T16:18:19.952Z,21.90
2019-05-10T16:20:46.538Z,21.80
2019-05-10T16:23:12.926Z,21.80
2019-05-10T16:25:42.881Z,21.80
2019-05-10T16:28:07.534Z,21.80
2019-05-10T16:30:36.507Z,21.80
2019-05-10T16:33:02.112Z,21.80
2019-05-10T16:35:38.321Z,21.80
2019-05-10T16:37:56.579Z,21.80
2019-05-10T16:40:22.842Z,21.70
2019-05-10T16:42:49.239Z,21.60
2019-05-10T16:45:16.117Z,21.50
2019-05-10T16:47:42.828Z,21.50
2019-05-10T16:50:10.906Z,21.50
2019-05-10T16:52:37.241Z,21.50
2019-05-10T16:55:05.558Z,21.50
2019-05-10T16:57:36.975Z,21.40
2019-05-10T17:00:02.082Z,21.30
2019-05-10T17:02:30.747Z,21.30
2019-05-10T17:04:57.378Z,21.20
2019-05-10T17:07:23.664Z,21.10
2019-05-10T17:09:54.664Z,21.00
2019-05-10T17:12:22.098Z,21.00
2019-05-10T17:14:50.477Z,21.10
2019-05-10T17:17:14.979Z,21.10
2019-05-10T17:19:41.275Z,21.20
2019-05-10T17:22:07.691Z,21.20
2019-05-10T17:24:34.009Z,21.20
2019-05-10T17:27:00.515Z,21.30
2019-05-10T17:29:27.246Z,21.20
2019-05-10T17:31:53.615Z,21.20
2019-05-10T17:34:27.552Z,21.10
2019-05-10T17:36:51.847Z,21.10
2019-05-10T17:39:16.488Z,21.00
2019-05-10T17:41:43.202Z,20.90
2019-05-10T17:44:09.496Z,20.80
2019-05-10T17:46:35.774Z,20.70
2019-05-10T17:49:02.161Z,20.60
2019-05-10T17:51:28.433Z,20.50
2019-05-10T17:54:01.337Z,20.40
2019-05-10T17:56:24.238Z,20.40
2019-05-10T17:58:50.535Z,20.30
2019-05-10T18:01:16.804Z,20.20
2019-05-10T18:03:43.201Z,20.10
2019-05-10T18:06:23.122Z,20.10
2019-05-10T18:08:38.203Z,20.00
2019-05-10T18:11:06.240Z,19.90
2019-05-10T18:13:35.563Z,19.80
2019-05-10T18:16:04.518Z,19.80
2019-05-10T18:18:35.184Z,19.70
2019-05-10T18:20:58.441Z,19.50
2019-05-10T18:23:24.843Z,19.40
2019-05-10T18:25:52.459Z,19.20
2019-05-10T18:28:21.671Z,19.10
2019-05-10T18:30:47.747Z,19.00
2019-05-10T18:33:14.203Z,18.80
2019-05-10T18:35:40.618Z,18.70
2019-05-10T18:38:07.369Z,18.60
2019-05-10T18:40:33.796Z,18.50
2019-05-10T18:43:03.708Z,18.40
2019-05-10T18:45:30.107Z,18.20
2019-05-10T18:47:57.777Z,18.10
2019-05-10T18:50:24.165Z,18.10
2019-05-10T18:52:50.555Z,18.00
2019-05-10T18:55:17.315Z,17.90
2019-05-10T18:57:45.215Z,17.80
2019-05-10T19:00:12.518Z,17.70
2019-05-10T19:02:38.801Z,17.60
2019-05-10T19:05:05.743Z,17.50
2019-05-10T19:07:32.335Z,17.50
2019-05-10T19:09:58.616Z,17.30
2019-05-10T19:12:25.493Z,17.30
2019-05-10T19:14:52.190Z,17.10
2019-05-10T19:17:18.491Z,17.00
2019-05-10T19:19:45.330Z,16.90
2019-05-10T19:22:12.495Z,16.80
2019-05-10T19:24:38.968Z,16.70
2019-05-10T19:27:07.541Z,16.60
2019-05-10T19:29:38.736Z,16.50
2019-05-10T19:32:03.342Z,16.50
2019-05-10T19:34:29.819Z,16.40
2019-05-10T19:36:56.288Z,16.30
2019-05-10T19:39:22.685Z,16.30
2019-05-10T19:41:49.044Z,16.20
2019-05-10T19:44:15.356Z,16.20
2019-05-10T19:46:41.737Z,16.10
2019-05-10T19:49:13.108Z,16.00
2019-05-10T19:51:36.534Z,16.00
2019-05-10T19:54:03.389Z,15.90
2019-05-10T19:56:36.053Z,15.80
2019-05-10T19:58:58.103Z,15.80
2019-05-10T20:01:24.384Z,15.70
2019-05-10T20:03:50.767Z,15.70
2019-05-10T20:06:17.163Z,15.70
2019-05-10T20:08:43.557Z,15.60
2019-05-10T20:11:10.164Z,15.50
2019-05-10T20:13:36.630Z,15.50
2019-05-10T20:16:03.337Z,15.50
2019-05-10T20:18:29.704Z,15.40
2019-05-10T20:20:56.094Z,15.40
2019-05-10T20:23:22.375Z,15.40
2019-05-10T20:25:49.022Z,15.30
2019-05-10T20:28:15.364Z,15.30
2019-05-10T20:30:42.191Z,15.30
2019-05-10T20:33:08.879Z,15.20
2019-05-10T20:35:35.159Z,15.20
2019-05-10T20:38:02.814Z,15.20
2019-05-10T20:40:43.048Z,15.20
2019-05-10T20:43:09.775Z,15.20
2019-05-10T20:45:36.055Z,15.20
2019-05-10T20:48:03.233Z,15.20
2019-05-10T20:50:29.602Z,15.10
2019-05-10T20:52:56.275Z,15.10
2019-05-10T20:55:22.760Z,15.10
2019-05-10T20:57:49.335Z,15.10
2019-05-10T21:00:17.253Z,15.10
2019-05-10T21:02:43.657Z,15.10
2019-05-10T21:05:10.233Z,15.10
2019-05-10T21:07:36.775Z,15.00
2019-05-10T21:10:05.815Z,15.00
2019-05-10T21:12:32.248Z,15.00
2019-05-10T21:14:59.038Z,14.90
2019-05-10T21:17:25.475Z,14.90
2019-05-10T21:19:51.862Z,14.80
2019-05-10T21:22:18.551Z,14.80
2019-05-10T21:24:44.981Z,14.80
2019-05-10T21:27:11.712Z,14.80
2019-05-10T21:29:38.455Z,14.70
2019-05-10T21:32:04.924Z,14.70
2019-05-10T21:34:31.409Z,14.70
2019-05-10T21:36:57.776Z,14.70
2019-05-10T21:39:24.068Z,14.70
2019-05-10T21:41:50.726Z,14.70
2019-05-10T21:44:17.036Z,14.70
2019-05-10T21:46:43.524Z,14.70
2019-05-10T21:49:10.036Z,14.60
2019-05-10T21:51:36.874Z,14.60
2019-05-10T21:54:03.625Z,14.60
2019-05-10T21:56:30.033Z,14.60
2019-05-10T21:58:56.791Z,14.60
2019-05-10T22:01:23.494Z,14.60
2019-05-10T22:03:50.267Z,14.60
2019-05-10T22:06:16.670Z,14.60
2019-05-10T22:08:49.296Z,14.50
2019-05-10T22:11:11.338Z,14.50
2019-05-10T22:13:37.617Z,14.50
2019-05-10T22:16:04.116Z,14.40
2019-05-10T22:18:32.198Z,14.40
2019-05-10T22:20:58.623Z,14.40
2019-05-10T22:23:25.006Z,14.40
2019-05-10T22:25:51.393Z,14.40
2019-05-10T22:28:17.803Z,14.30
2019-05-10T22:30:44.226Z,14.30
2019-05-10T22:33:10.694Z,14.30
2019-05-10T22:35:36.988Z,14.30
2019-05-10T22:38:03.488Z,14.30
2019-05-10T22:40:29.755Z,14.30
2019-05-10T22:42:56.045Z,14.30
2019-05-10T22:45:22.807Z,14.30
2019-05-10T22:47:49.127Z,14.20
2019-05-10T22:50:15.500Z,14.30
2019-05-10T22:52:42.103Z,14.30
2019-05-10T22:55:08.862Z,14.20
2019-05-10T22:57:35.135Z,14.20
2019-05-10T23:00:01.782Z,14.20
2019-05-10T23:02:29.326Z,14.20
2019-05-10T23:04:55.907Z,14.20
2019-05-10T23:07:22.280Z,14.20
2019-05-10T23:09:48.979Z,14.20
2019-05-10T23:12:15.255Z,14.20
2019-05-10T23:14:41.539Z,14.20
2019-05-10T23:17:08.179Z,14.20
2019-05-10T23:19:34.476Z,14.20
2019-05-10T23:22:00.751Z,14.10
2019-05-10T23:24:39.243Z,14.10
2019-05-10T23:27:06.821Z,14.10
2019-05-10T23:29:33.922Z,14.10
2019-05-10T23:32:00.579Z,14.10
2019-05-10T23:34:27.243Z,14.10
2019-05-10T23:36:53.510Z,14.10
2019-05-10T23:39:20.891Z,14.10
2019-05-10T23:41:47.179Z,14.00
2019-05-10T23:44:13.896Z,14.10
2019-05-10T23:46:40.630Z,14.10
2019-05-10T23:49:06.894Z,14.00
2019-05-10T23:51:33.178Z,14.00
2019-05-10T23:53:59.487Z,14.10
2019-05-10T23:56:25.877Z,14.00
2019-05-10T23:58:52.143Z,14.10
